createdAt,value
2022-10-16T00:01:29.576Z,95.71
2022-10-16T00:03:58.201Z,95.66
2022-10-16T00:06:26.573Z,95.50
2022-10-16T00:08:55.429Z,95.85
2022-10-16T00:11:27.115Z,95.87
2022-10-16T00:13:58.208Z,95.68
2022-10-16T00:16:26.169Z,95.48
2022-10-16T00:18:56.065Z,95.83
2022-10-16T00:21:25.539Z,96.04
2022-10-16T00:23:54.431Z,95.94
2022-10-16T00:26:22.288Z,96.74
2022-10-16T00:28:51.349Z,97.04
2022-10-16T00:31:21.075Z,97.36
2022-10-16T00:33:48.728Z,97.38
2022-10-16T00:36:18.684Z,97.14
2022-10-16T00:38:46.563Z,97.07
2022-10-16T00:41:16.280Z,96.76
2022-10-16T00:43:48.568Z,96.90
2022-10-16T00:46:21.251Z,97.14
2022-10-16T00:48:53.876Z,96.95
2022-10-16T00:51:24.413Z,97.08
2022-10-16T00:53:53.217Z,97.13
2022-10-16T00:56:21.071Z,97.42
2022-10-16T00:58:48.676Z,97.31
2022-10-16T01:01:16.613Z,97.78
2022-10-16T01:03:44.313Z,97.97
2022-10-16T01:06:32.997Z,97.33
2022-10-16T01:09:13.550Z,97.91
2022-10-16T01:12:14.808Z,97.28
2022-10-16T01:14:58.420Z,97.33
2022-10-16T01:17:38.004Z,97.20
2022-10-16T01:20:12.483Z,97.38
2022-10-16T01:22:41.288Z,96.93
2022-10-16T01:25:13.200Z,96.85
2022-10-16T01:27:40.832Z,96.92
2022-10-16T01:30:16.845Z,96.59
2022-10-16T01:33:16.326Z,96.74
2022-10-16T01:35:48.140Z,96.67
2022-10-16T01:38:21.828Z,96.72
2022-10-16T01:40:53.139Z,97.68
2022-10-16T01:43:22.752Z,97.48
2022-10-16T01:45:50.644Z,97.30
2022-10-16T01:48:19.448Z,97.31
2022-10-16T01:50:53.443Z,97.53
2022-10-16T01:53:21.267Z,97.44
2022-10-16T01:55:49.848Z,97.46
2022-10-16T01:58:20.164Z,97.50
2022-10-16T02:00:48.310Z,97.20
2022-10-16T02:03:17.559Z,97.64
2022-10-16T02:05:52.004Z,97.28
2022-10-16T02:08:20.347Z,97.60
2022-10-16T02:10:48.563Z,97.38
2022-10-16T02:13:32.705Z,97.64
2022-10-16T02:16:00.364Z,97.64
2022-10-16T02:18:32.021Z,97.42
2022-10-16T02:21:24.037Z,97.71
2022-10-16T02:24:14.670Z,97.21
2022-10-16T02:27:11.893Z,97.45
2022-10-16T02:29:41.933Z,97.50
2022-10-16T02:32:09.497Z,97.84
2022-10-16T02:34:38.626Z,97.85
2022-10-16T02:37:06.305Z,97.68
2022-10-16T02:39:34.252Z,97.85
2022-10-16T02:42:02.623Z,97.74
2022-10-16T02:44:31.065Z,97.31
2022-10-16T02:46:58.769Z,97.77
2022-10-16T02:49:26.676Z,97.70
2022-10-16T02:51:54.460Z,97.55
2022-10-16T02:54:22.189Z,97.50
2022-10-16T02:56:50.147Z,97.46
2022-10-16T02:59:17.872Z,97.23
2022-10-16T03:01:47.094Z,97.50
2022-10-16T03:04:14.840Z,97.32
2022-10-16T03:06:42.446Z,97.47
2022-10-16T03:09:10.049Z,97.38
2022-10-16T03:11:37.709Z,97.11
2022-10-16T03:14:06.382Z,97.36
2022-10-16T03:16:34.132Z,97.73
2022-10-16T03:19:02.400Z,97.40
2022-10-16T03:21:30.828Z,97.31
2022-10-16T03:23:58.423Z,97.32
2022-10-16T03:26:26.137Z,97.40
2022-10-16T03:28:53.945Z,97.37
2022-10-16T03:31:21.706Z,97.19
2022-10-16T03:33:49.352Z,97.26
2022-10-16T03:36:17.043Z,97.19
2022-10-16T03:38:44.782Z,97.37
2022-10-16T03:41:12.642Z,97.31
2022-10-16T03:43:40.340Z,97.43
2022-10-16T03:46:08.158Z,97.35
2022-10-16T03:48:36.559Z,97.64
2022-10-16T03:51:04.299Z,97.43
2022-10-16T03:53:32.435Z,97.86
2022-10-16T03:56:00.065Z,97.79
2022-10-16T03:58:27.669Z,97.91
2022-10-16T04:00:55.308Z,97.82
2022-10-16T04:03:24.175Z,97.61
2022-10-16T04:05:51.825Z,97.80
2022-10-16T04:08:19.572Z,97.96
2022-10-16T04:10:47.138Z,97.83
2022-10-16T04:13:14.870Z,97.62
2022-10-16T04:15:42.478Z,97.55
2022-10-16T04:18:10.555Z,97.80
2022-10-16T04:20:38.703Z,97.44
2022-10-16T04:23:06.364Z,97.53
2022-10-16T04:25:35.054Z,97.56
2022-10-16T04:28:02.981Z,97.37
2022-10-16T04:30:30.770Z,97.45
2022-10-16T04:32:58.528Z,97.36
2022-10-16T04:35:26.866Z,97.75
2022-10-16T04:37:54.504Z,97.60
2022-10-16T04:40:22.219Z,97.69
2022-10-16T04:42:50.014Z,97.84
2022-10-16T04:45:17.729Z,97.75
2022-10-16T04:47:48.284Z,98.01
2022-10-16T04:50:16.015Z,98.09
2022-10-16T04:53:02.362Z,98.45
2022-10-16T04:55:30.596Z,99.02
2022-10-16T04:57:58.186Z,99.14
2022-10-16T05:00:25.884Z,99.81
2022-10-16T05:02:53.585Z,99.76
2022-10-16T05:05:21.491Z,99.88
2022-10-16T05:07:49.370Z,100.00
2022-10-16T05:10:17.959Z,100.00
2022-10-16T05:12:48.924Z,100.00
2022-10-16T05:15:17.492Z,100.00
2022-10-16T05:17:45.231Z,100.00
2022-10-16T05:20:13.711Z,100.00
2022-10-16T05:22:41.798Z,100.00
2022-10-16T05:25:10.200Z,100.00
2022-10-16T05:27:38.600Z,100.00
2022-10-16T05:30:09.912Z,100.00
2022-10-16T05:32:41.029Z,100.00
2022-10-16T05:35:12.557Z,100.00
2022-10-16T05:37:41.943Z,100.00
2022-10-16T05:40:10.747Z,100.00
2022-10-16T05:42:38.616Z,100.00
2022-10-16T05:45:07.431Z,100.00
2022-10-16T05:47:35.106Z,100.00
2022-10-16T05:50:05.501Z,100.00
2022-10-16T05:52:33.255Z,100.00
2022-10-16T05:55:01.121Z,100.00
2022-10-16T05:57:29.655Z,100.00
2022-10-16T05:59:57.415Z,99.95
2022-10-16T06:02:25.108Z,99.64
2022-10-16T06:04:54.805Z,99.00
2022-10-16T06:07:24.841Z,98.14
2022-10-16T06:09:53.352Z,98.23
2022-10-16T06:12:21.306Z,96.29
2022-10-16T06:14:50.356Z,95.28
2022-10-16T06:17:20.365Z,94.91
2022-10-16T06:19:49.220Z,95.20
2022-10-16T06:22:17.370Z,95.03
2022-10-16T06:24:45.118Z,93.68
2022-10-16T06:27:12.890Z,91.27
2022-10-16T06:29:40.875Z,90.52
2022-10-16T06:32:08.621Z,89.26
2022-10-16T06:34:38.510Z,88.48
2022-10-16T06:37:09.705Z,85.92
2022-10-16T06:39:37.527Z,85.27
2022-10-16T06:42:05.238Z,84.48
2022-10-16T06:44:37.313Z,84.30
2022-10-16T06:47:05.329Z,84.65
2022-10-16T06:49:32.964Z,83.08
2022-10-16T06:52:01.248Z,81.72
2022-10-16T06:54:29.716Z,82.21
2022-10-16T06:57:01.092Z,82.53
2022-10-16T06:59:29.680Z,80.62
2022-10-16T07:01:57.531Z,80.48
2022-10-16T07:04:25.073Z,81.09
2022-10-16T07:06:52.937Z,80.43
2022-10-16T07:09:22.781Z,79.81
2022-10-16T07:11:50.871Z,78.47
2022-10-16T07:14:20.393Z,78.36
2022-10-16T07:16:48.629Z,78.39
2022-10-16T07:19:18.067Z,77.18
2022-10-16T07:21:45.746Z,77.20
2022-10-16T07:24:15.746Z,76.62
2022-10-16T07:26:47.261Z,76.30
2022-10-16T07:29:16.547Z,76.22
2022-10-16T07:31:44.239Z,74.96
2022-10-16T07:34:13.635Z,73.69
2022-10-16T07:39:10.392Z,73.77
2022-10-16T07:41:38.857Z,73.84
2022-10-16T07:44:07.453Z,73.62
2022-10-16T07:46:37.032Z,72.81
2022-10-16T07:49:04.876Z,72.28
2022-10-16T07:51:32.889Z,71.31
2022-10-16T07:54:00.710Z,70.52
2022-10-16T07:56:28.310Z,69.14
2022-10-16T07:58:57.657Z,69.25
2022-10-16T08:01:25.350Z,68.97
2022-10-16T08:03:53.265Z,69.21
2022-10-16T08:06:25.258Z,68.93
2022-10-16T08:08:56.982Z,68.08
2022-10-16T08:11:24.692Z,67.69
2022-10-16T08:13:52.676Z,68.45
2022-10-16T08:16:22.247Z,66.87
2022-10-16T08:18:52.566Z,66.04
2022-10-16T08:21:22.756Z,65.73
2022-10-16T08:23:54.854Z,65.92
2022-10-16T08:26:27.239Z,65.26
2022-10-16T08:28:56.057Z,64.90
2022-10-16T08:31:24.105Z,64.76
2022-10-16T08:33:53.498Z,62.26
2022-10-16T08:36:21.342Z,64.39
2022-10-16T08:38:51.567Z,63.32
2022-10-16T08:41:25.681Z,63.22
2022-10-16T08:44:15.027Z,60.73
2022-10-16T08:46:49.617Z,60.45
2022-10-16T08:49:18.469Z,59.96
2022-10-16T08:51:47.713Z,60.65
2022-10-16T08:54:41.682Z,60.49
2022-10-16T08:57:24.262Z,59.84
2022-10-16T08:59:53.069Z,58.89
2022-10-16T09:02:23.606Z,58.17
2022-10-16T09:04:56.931Z,59.62
2022-10-16T09:08:15.551Z,57.34
2022-10-16T09:10:58.316Z,56.43
2022-10-16T09:13:49.727Z,56.43
2022-10-16T09:16:31.895Z,56.20
2022-10-16T09:19:16.125Z,55.81
2022-10-16T09:21:46.448Z,54.60
2022-10-16T09:24:17.265Z,55.15
2022-10-16T09:26:45.468Z,54.55
2022-10-16T09:29:14.130Z,54.08
2022-10-16T09:31:42.760Z,54.02
2022-10-16T09:34:32.305Z,54.04
2022-10-16T09:37:00.571Z,55.04
2022-10-16T09:39:28.430Z,54.42
2022-10-16T09:41:56.318Z,54.74
2022-10-16T09:44:31.837Z,54.38
2022-10-16T09:47:29.302Z,52.46
2022-10-16T09:50:20.838Z,52.05
2022-10-16T09:52:48.642Z,51.96
2022-10-16T09:55:18.346Z,51.62
2022-10-16T09:57:52.932Z,50.97
2022-10-16T10:00:24.019Z,51.73
2022-10-16T10:02:51.915Z,54.06
2022-10-16T10:05:26.737Z,50.81
2022-10-16T10:07:58.737Z,50.29
2022-10-16T10:10:30.767Z,51.71
2022-10-16T10:13:01.275Z,50.57
2022-10-16T10:15:31.787Z,49.25
2022-10-16T10:17:59.386Z,49.34
2022-10-16T10:20:33.885Z,50.15
2022-10-16T10:23:03.909Z,49.33
2022-10-16T10:26:11.100Z,50.26
2022-10-16T10:28:44.558Z,48.08
2022-10-16T10:31:19.501Z,48.02
2022-10-16T10:34:02.064Z,48.72
2022-10-16T10:36:41.280Z,47.92
2022-10-16T10:39:09.125Z,48.63
2022-10-16T10:41:56.942Z,47.75
2022-10-16T10:44:37.157Z,48.96
2022-10-16T10:47:24.253Z,49.08
2022-10-16T10:50:03.885Z,49.19
2022-10-16T10:52:35.833Z,47.99
2022-10-16T10:55:25.202Z,48.83
2022-10-16T10:58:16.429Z,48.57
2022-10-16T11:00:56.376Z,47.70
2022-10-16T11:03:58.466Z,48.19
2022-10-16T11:06:36.302Z,48.92
2022-10-16T11:09:24.276Z,48.21
2022-10-16T11:12:18.233Z,48.71
2022-10-16T11:15:01.844Z,50.05
2022-10-16T11:17:34.296Z,47.67
2022-10-16T11:20:15.070Z,47.79
2022-10-16T11:22:57.749Z,47.97
2022-10-16T11:25:28.783Z,48.79
2022-10-16T11:27:58.532Z,48.86
2022-10-16T11:30:28.200Z,49.90
2022-10-16T11:33:13.682Z,47.76
2022-10-16T11:36:14.019Z,48.08
2022-10-16T11:39:09.897Z,47.75
2022-10-16T11:41:53.071Z,47.38
2022-10-16T11:44:23.790Z,46.36
2022-10-16T11:47:28.542Z,46.76
2022-10-16T11:49:51.621Z,47.44
2022-10-16T11:52:26.512Z,46.60
2022-10-16T11:55:00.893Z,46.67
2022-10-16T11:57:30.451Z,47.33
2022-10-16T12:00:30.211Z,46.46
2022-10-16T12:03:01.520Z,46.48
2022-10-16T12:05:53.063Z,45.95
2022-10-16T12:08:21.289Z,46.33
2022-10-16T12:10:49.152Z,46.28
2022-10-16T12:13:34.297Z,47.40
2022-10-16T12:16:15.207Z,45.16
2022-10-16T12:18:45.021Z,46.19
2022-10-16T12:21:16.861Z,45.52
2022-10-16T12:23:51.961Z,44.70
2022-10-16T12:26:46.213Z,44.31
2022-10-16T12:29:15.702Z,44.40
2022-10-16T12:31:57.419Z,46.32
2022-10-16T12:34:43.366Z,44.96
2022-10-16T12:37:13.748Z,44.63
2022-10-16T12:39:41.300Z,44.53
2022-10-16T12:42:32.776Z,43.58
2022-10-16T12:45:03.221Z,42.59
2022-10-16T12:47:33.838Z,43.35
2022-10-16T12:50:05.347Z,42.68
2022-10-16T12:52:35.247Z,42.98
2022-10-16T12:55:05.285Z,42.28
2022-10-16T12:58:00.813Z,43.81
2022-10-16T13:00:45.497Z,42.34
2022-10-16T13:03:42.422Z,43.19
2022-10-16T13:06:37.369Z,42.92
2022-10-16T13:09:12.882Z,43.12
2022-10-16T13:12:09.146Z,41.65
2022-10-16T13:15:09.341Z,44.41
2022-10-16T13:17:54.900Z,41.71
2022-10-16T13:20:26.153Z,42.04
2022-10-16T13:23:16.270Z,41.81
2022-10-16T13:25:49.892Z,42.42
2022-10-16T13:28:18.032Z,43.79
2022-10-16T13:30:55.764Z,42.11
2022-10-16T13:33:43.404Z,42.35
2022-10-16T13:36:25.059Z,42.58
2022-10-16T13:39:25.110Z,41.94
2022-10-16T13:42:27.788Z,42.22
2022-10-16T13:44:57.155Z,42.56
2022-10-16T13:47:26.786Z,42.58
2022-10-16T13:50:07.610Z,42.74
2022-10-16T13:52:36.374Z,42.96
2022-10-16T13:55:04.369Z,43.11
2022-10-16T13:57:34.195Z,43.26
2022-10-16T14:00:01.988Z,43.07
2022-10-16T14:02:36.497Z,43.90
2022-10-16T14:05:04.847Z,44.24
2022-10-16T14:07:34.803Z,45.24
2022-10-16T14:10:07.011Z,46.02
2022-10-16T14:12:37.556Z,47.42
2022-10-16T14:15:05.934Z,48.34
2022-10-16T14:17:35.196Z,49.16
2022-10-16T14:20:07.344Z,49.90
2022-10-16T14:22:41.801Z,51.04
2022-10-16T14:25:22.143Z,52.07
2022-10-16T14:28:03.763Z,52.70
2022-10-16T14:30:36.211Z,53.27
2022-10-16T14:33:06.216Z,53.79
2022-10-16T14:35:38.992Z,54.44
2022-10-16T14:38:07.263Z,54.99
2022-10-16T14:40:36.893Z,55.82
2022-10-16T14:43:04.998Z,56.08
2022-10-16T14:45:35.044Z,56.57
2022-10-16T14:48:06.729Z,57.00
2022-10-16T14:50:34.349Z,58.00
2022-10-16T14:53:02.074Z,59.26
2022-10-16T14:55:29.821Z,59.65
2022-10-16T14:57:59.840Z,60.58
2022-10-16T15:00:28.593Z,61.04
2022-10-16T15:02:56.087Z,61.52
2022-10-16T15:05:26.051Z,61.98
2022-10-16T15:07:57.163Z,62.35
2022-10-16T15:10:26.293Z,62.75
2022-10-16T15:12:54.976Z,63.22
2022-10-16T15:15:28.352Z,63.53
2022-10-16T15:18:01.678Z,64.20
2022-10-16T15:20:31.477Z,65.79
2022-10-16T15:22:59.115Z,66.93
2022-10-16T15:25:38.841Z,67.78
2022-10-16T15:28:06.621Z,68.59
2022-10-16T15:30:34.421Z,69.09
2022-10-16T15:33:02.288Z,69.65
2022-10-16T15:35:30.120Z,69.35
2022-10-16T15:37:59.077Z,69.49
2022-10-16T15:40:27.318Z,70.59
2022-10-16T15:42:55.089Z,70.91
2022-10-16T15:45:23.325Z,71.23
2022-10-16T15:47:51.785Z,71.65
2022-10-16T15:50:19.566Z,72.22
2022-10-16T15:52:48.301Z,73.23
2022-10-16T15:55:16.387Z,74.07
2022-10-16T15:57:44.288Z,74.34
2022-10-16T16:00:17.208Z,74.52
2022-10-16T16:02:45.127Z,74.22
2022-10-16T16:05:12.954Z,74.43
2022-10-16T16:07:41.380Z,74.63
2022-10-16T16:10:12.299Z,74.51
2022-10-16T16:12:40.046Z,74.82
2022-10-16T16:15:09.002Z,74.86
2022-10-16T16:17:36.805Z,75.18
2022-10-16T16:20:05.700Z,76.33
2022-10-16T16:22:33.350Z,76.78
2022-10-16T16:25:00.990Z,77.82
2022-10-16T16:27:31.271Z,77.78
2022-10-16T16:29:59.155Z,78.43
2022-10-16T16:32:26.771Z,78.58
2022-10-16T16:34:54.384Z,78.88
2022-10-16T16:37:21.963Z,80.09
2022-10-16T16:39:50.360Z,80.24
2022-10-16T16:42:18.556Z,81.09
2022-10-16T16:44:46.076Z,81.97
2022-10-16T16:47:13.938Z,81.82
2022-10-16T16:49:41.712Z,81.97
2022-10-16T16:52:09.507Z,82.21
2022-10-16T16:54:37.081Z,82.18
2022-10-16T16:57:05.401Z,82.68
2022-10-16T16:59:33.905Z,82.62
2022-10-16T17:02:01.589Z,83.06
2022-10-16T17:04:29.356Z,82.96
2022-10-16T17:06:58.159Z,82.58
2022-10-16T17:09:27.488Z,82.33
2022-10-16T17:11:55.174Z,82.51
2022-10-16T17:14:23.856Z,81.98
2022-10-16T17:16:52.717Z,82.66
2022-10-16T17:19:20.685Z,82.43
2022-10-16T17:21:51.754Z,81.82
2022-10-16T17:24:21.529Z,81.50
2022-10-16T17:26:49.514Z,82.49
2022-10-16T17:29:18.538Z,82.76
2022-10-16T17:31:46.196Z,82.62
2022-10-16T17:34:14.445Z,82.66
2022-10-16T17:36:47.155Z,82.51
2022-10-16T17:39:17.868Z,83.49
2022-10-16T17:41:46.702Z,83.88
2022-10-16T17:44:20.080Z,84.20
2022-10-16T17:46:51.927Z,83.73
2022-10-16T17:49:19.795Z,83.69
2022-10-16T17:51:50.464Z,83.17
2022-10-16T17:54:18.203Z,83.62
2022-10-16T17:56:47.849Z,83.41
2022-10-16T17:59:16.254Z,83.59
2022-10-16T18:01:46.425Z,83.55
2022-10-16T18:04:15.730Z,83.91
2022-10-16T18:06:44.127Z,85.15
2022-10-16T18:09:15.203Z,84.99
2022-10-16T18:11:42.854Z,84.84
2022-10-16T18:14:14.717Z,84.95
2022-10-16T18:16:44.968Z,84.76
2022-10-16T18:19:13.689Z,84.11
2022-10-16T18:21:41.521Z,84.54
2022-10-16T18:24:10.802Z,85.71
2022-10-16T18:26:39.423Z,86.10
2022-10-16T18:29:07.119Z,85.74
2022-10-16T18:31:37.799Z,85.58
2022-10-16T18:34:08.152Z,85.99
2022-10-16T18:36:36.816Z,85.65
2022-10-16T18:39:09.554Z,85.58
2022-10-16T18:41:42.001Z,85.19
2022-10-16T18:44:13.458Z,85.51
2022-10-16T18:46:41.861Z,85.20
2022-10-16T18:49:09.640Z,84.89
2022-10-16T18:51:40.383Z,85.01
2022-10-16T18:54:09.394Z,85.00
2022-10-16T18:56:40.358Z,85.00
2022-10-16T18:59:09.231Z,85.28
2022-10-16T19:01:38.758Z,85.30
2022-10-16T19:04:08.701Z,86.14
2022-10-16T19:06:37.745Z,85.73
2022-10-16T19:09:06.586Z,85.99
2022-10-16T19:11:37.927Z,86.03
2022-10-16T19:14:09.345Z,85.92
2022-10-16T19:16:38.198Z,85.88
2022-10-16T19:19:07.865Z,86.11
2022-10-16T19:21:37.100Z,86.74
2022-10-16T19:24:07.164Z,86.75
2022-10-16T19:26:36.873Z,86.96
2022-10-16T19:29:08.244Z,87.45
2022-10-16T19:31:36.137Z,87.28
2022-10-16T19:34:04.601Z,86.67
2022-10-16T19:36:36.587Z,86.60
2022-10-16T19:39:07.638Z,86.33
2022-10-16T19:41:36.771Z,86.80
2022-10-16T19:44:06.056Z,86.75
2022-10-16T19:46:34.336Z,87.20
2022-10-16T19:49:04.122Z,87.80
2022-10-16T19:51:32.119Z,88.08
2022-10-16T19:54:01.695Z,87.83
2022-10-16T19:56:30.180Z,88.49
2022-10-16T19:58:58.122Z,88.18
2022-10-16T20:01:27.653Z,88.46
2022-10-16T20:03:55.694Z,88.01
2022-10-16T20:06:23.437Z,88.27
2022-10-16T20:08:51.816Z,88.13
2022-10-16T20:11:21.041Z,88.28
2022-10-16T20:13:48.795Z,88.34
2022-10-16T20:16:18.100Z,89.13
2022-10-16T20:18:46.331Z,89.20
2022-10-16T20:21:18.409Z,89.76
2022-10-16T20:23:49.024Z,89.91
2022-10-16T20:26:18.904Z,90.28
2022-10-16T20:28:47.549Z,90.26
2022-10-16T20:31:18.406Z,90.14
2022-10-16T20:33:46.227Z,90.31
2022-10-16T20:36:14.336Z,90.25
2022-10-16T20:38:42.587Z,90.16
2022-10-16T20:41:10.812Z,90.70
2022-10-16T20:43:44.756Z,90.55
2022-10-16T20:46:14.027Z,90.32
2022-10-16T20:48:44.723Z,90.33
2022-10-16T20:51:16.718Z,90.28
2022-10-16T20:53:46.655Z,90.53
2022-10-16T20:56:16.055Z,91.02
2022-10-16T20:58:44.302Z,91.10
2022-10-16T21:01:14.947Z,91.17
2022-10-16T21:03:42.600Z,91.22
2022-10-16T21:06:10.579Z,91.39
2022-10-16T21:08:39.725Z,90.97
2022-10-16T21:11:12.074Z,91.08
2022-10-16T21:13:41.116Z,91.50
2022-10-16T21:16:09.299Z,91.71
2022-10-16T21:18:40.736Z,91.67
2022-10-16T21:21:12.283Z,91.72
2022-10-16T21:23:39.892Z,92.36
2022-10-16T21:26:07.701Z,91.97
2022-10-16T21:28:35.396Z,91.99
2022-10-16T21:31:22.303Z,92.04
2022-10-16T21:33:50.192Z,91.99
2022-10-16T21:36:25.730Z,91.69
2022-10-16T21:38:53.711Z,92.02
2022-10-16T21:41:24.971Z,91.78
2022-10-16T21:43:52.621Z,91.88
2022-10-16T21:46:21.253Z,92.28
2022-10-16T21:48:49.473Z,92.30
2022-10-16T21:51:17.138Z,92.99
2022-10-16T21:53:44.729Z,93.06
2022-10-16T21:56:16.782Z,93.20
2022-10-16T21:58:44.693Z,93.71
2022-10-16T22:01:17.126Z,93.45
2022-10-16T22:03:47.375Z,93.36
2022-10-16T22:06:16.168Z,93.29
2022-10-16T22:08:43.961Z,93.12
2022-10-16T22:11:22.090Z,93.24
2022-10-16T22:13:54.231Z,93.08
2022-10-16T22:16:25.901Z,93.32
2022-10-16T22:18:54.472Z,93.84
2022-10-16T22:21:22.996Z,94.10
2022-10-16T22:23:50.747Z,93.91
2022-10-16T22:26:18.577Z,93.94
2022-10-16T22:28:46.615Z,94.35
2022-10-16T22:31:15.529Z,94.46
2022-10-16T22:33:44.464Z,94.49
2022-10-16T22:36:14.408Z,94.27
2022-10-16T22:38:42.078Z,94.34
2022-10-16T22:41:11.882Z,94.48
2022-10-16T22:43:42.919Z,94.05
2022-10-16T22:46:12.555Z,93.77
2022-10-16T22:48:40.562Z,94.29
2022-10-16T22:51:08.391Z,94.17
2022-10-16T22:53:38.000Z,94.44
2022-10-16T22:56:05.673Z,94.29
2022-10-16T22:58:33.815Z,95.06
2022-10-16T23:01:01.473Z,94.98
2022-10-16T23:03:29.192Z,95.04
2022-10-16T23:05:56.981Z,95.84
2022-10-16T23:08:24.726Z,95.61
2022-10-16T23:10:52.393Z,96.96
2022-10-16T23:13:20.025Z,96.92
2022-10-16T23:15:47.633Z,97.02
2022-10-16T23:18:17.029Z,96.95
2022-10-16T23:20:44.601Z,97.61
2022-10-16T23:23:12.185Z,97.41
2022-10-16T23:25:47.262Z,96.94
2022-10-16T23:30:43.181Z,96.71
2022-10-16T23:33:10.754Z,98.41
2022-10-16T23:35:41.762Z,97.67
2022-10-16T23:38:09.773Z,97.37
2022-10-16T23:40:37.706Z,97.43
2022-10-16T23:43:05.298Z,97.50
2022-10-16T23:45:32.944Z,97.16
2022-10-16T23:48:00.676Z,97.20
2022-10-16T23:50:30.500Z,96.86
2022-10-16T23:52:58.092Z,97.16
2022-10-16T23:55:25.774Z,96.54
2022-10-16T23:57:53.478Z,96.96
